createdAt,value
2022-12-04T00:01:13.048Z,76.59
2022-12-04T00:03:44.163Z,78.07
2022-12-04T00:06:18.103Z,76.89
2022-12-04T00:08:53.507Z,76.34
2022-12-04T00:11:28.246Z,77.45
2022-12-04T00:14:06.505Z,76.58
2022-12-04T00:16:39.499Z,78.46
2022-12-04T00:19:11.336Z,79.11
2022-12-04T00:21:43.300Z,79.28
2022-12-04T00:24:17.365Z,77.56
2022-12-04T00:26:49.153Z,77.55
2022-12-04T00:29:20.719Z,77.88
2022-12-04T00:31:52.564Z,77.39
2022-12-04T00:34:25.268Z,77.88
2022-12-04T00:36:57.731Z,78.02
2022-12-04T00:39:31.941Z,77.43
2022-12-04T00:42:07.128Z,77.48
2022-12-04T00:44:41.322Z,77.32
2022-12-04T00:47:16.040Z,77.83
2022-12-04T00:49:49.225Z,77.20
2022-12-04T00:52:21.016Z,77.40
2022-12-04T00:54:55.303Z,79.51
2022-12-04T00:57:27.112Z,79.97
2022-12-04T00:59:58.669Z,78.90
2022-12-04T01:02:34.216Z,79.30
2022-12-04T01:05:07.843Z,78.67
2022-12-04T01:07:39.972Z,79.68
2022-12-04T01:10:15.986Z,80.52
2022-12-04T01:12:49.174Z,80.50
2022-12-04T01:15:23.350Z,79.44
2022-12-04T01:17:55.805Z,78.81
2022-12-04T01:20:27.681Z,79.15
2022-12-04T01:23:00.104Z,79.18
2022-12-04T01:25:34.887Z,79.68
2022-12-04T01:28:08.316Z,79.26
2022-12-04T01:30:40.407Z,81.18
2022-12-04T01:33:13.178Z,81.06
2022-12-04T01:35:45.339Z,81.14
2022-12-04T01:38:17.876Z,82.22
2022-12-04T01:40:52.595Z,82.81
2022-12-04T01:43:38.357Z,81.88
2022-12-04T01:46:11.269Z,80.75
2022-12-04T01:48:47.528Z,82.80
2022-12-04T01:51:23.785Z,83.40
2022-12-04T01:53:59.835Z,82.89
2022-12-04T01:56:39.807Z,81.32
2022-12-04T01:59:16.476Z,80.60
2022-12-04T02:01:57.899Z,80.90
2022-12-04T02:04:29.846Z,79.84
2022-12-04T02:07:00.989Z,82.12
2022-12-04T02:09:34.152Z,81.49
2022-12-04T02:12:16.978Z,82.47
2022-12-04T02:15:01.741Z,81.46
2022-12-04T02:17:42.735Z,81.60
2022-12-04T02:20:28.949Z,81.79
2022-12-04T02:23:36.713Z,82.66
2022-12-04T02:26:25.554Z,83.92
2022-12-04T02:29:04.911Z,83.72
2022-12-04T02:31:43.984Z,84.27
2022-12-04T02:34:24.226Z,83.75
2022-12-04T02:37:07.568Z,83.27
2022-12-04T02:39:43.561Z,83.50
2022-12-04T02:42:21.525Z,83.91
2022-12-04T02:45:03.241Z,84.99
2022-12-04T02:47:36.758Z,84.44
2022-12-04T02:50:13.049Z,83.26
2022-12-04T02:52:50.027Z,83.95
2022-12-04T02:55:27.239Z,83.00
2022-12-04T02:58:04.886Z,83.07
2022-12-04T03:00:42.127Z,83.04
2022-12-04T03:03:21.180Z,82.98
2022-12-04T03:05:59.337Z,83.66
2022-12-04T03:08:36.068Z,82.57
2022-12-04T03:11:08.186Z,82.63
2022-12-04T03:13:45.140Z,82.43
2022-12-04T03:16:22.716Z,81.58
2022-12-04T03:18:59.189Z,82.54
2022-12-04T03:21:35.756Z,82.10
2022-12-04T03:24:16.299Z,81.42
2022-12-04T03:26:50.636Z,82.43
2022-12-04T03:29:26.746Z,81.59
2022-12-04T03:32:06.417Z,80.41
2022-12-04T03:34:46.917Z,80.97
2022-12-04T03:37:22.245Z,82.55
2022-12-04T03:40:01.800Z,82.61
2022-12-04T03:43:00.726Z,82.10
2022-12-04T03:45:41.380Z,83.04
2022-12-04T03:48:23.662Z,81.33
2022-12-04T03:51:03.608Z,82.11
2022-12-04T03:53:41.645Z,82.45
2022-12-04T03:56:19.177Z,82.82
2022-12-04T03:58:54.936Z,82.01
2022-12-04T04:01:31.688Z,81.24
2022-12-04T04:04:10.036Z,80.91
2022-12-04T04:06:47.487Z,80.40
2022-12-04T04:09:22.995Z,80.46
2022-12-04T04:12:00.396Z,81.89
2022-12-04T04:14:49.026Z,82.26
2022-12-04T04:17:39.833Z,83.04
2022-12-04T04:20:31.379Z,82.21
2022-12-04T04:23:20.426Z,82.56
2022-12-04T04:25:55.045Z,82.86
2022-12-04T04:28:33.954Z,81.11
2022-12-04T04:31:13.420Z,80.86
2022-12-04T04:33:55.069Z,80.87
2022-12-04T04:36:39.736Z,80.73
2022-12-04T04:39:21.348Z,80.94
2022-12-04T04:41:59.731Z,81.41
2022-12-04T04:44:42.690Z,81.78
2022-12-04T04:47:21.180Z,80.65
2022-12-04T04:49:55.624Z,81.61
2022-12-04T04:52:33.962Z,82.14
2022-12-04T04:55:11.070Z,83.09
2022-12-04T04:57:45.791Z,81.94
2022-12-04T05:00:23.484Z,81.59
2022-12-04T05:02:56.316Z,80.79
2022-12-04T05:05:32.731Z,81.59
2022-12-04T05:08:13.671Z,81.45
2022-12-04T05:10:50.979Z,81.34
2022-12-04T05:13:49.870Z,80.65
2022-12-04T05:16:27.697Z,80.30
2022-12-04T05:19:11.577Z,80.28
2022-12-04T05:21:44.115Z,80.47
2022-12-04T05:24:20.590Z,80.00
2022-12-04T05:26:55.765Z,79.76
2022-12-04T05:29:30.405Z,80.61
2022-12-04T05:32:09.355Z,80.55
2022-12-04T05:34:41.233Z,81.14
2022-12-04T05:37:13.071Z,80.76
2022-12-04T05:39:47.357Z,81.01
2022-12-04T05:42:22.049Z,81.99
2022-12-04T05:44:59.304Z,79.83
2022-12-04T05:47:31.683Z,78.74
2022-12-04T05:50:03.552Z,79.44
2022-12-04T05:52:36.703Z,81.08
2022-12-04T05:55:26.255Z,82.31
2022-12-04T05:58:01.601Z,83.13
2022-12-04T06:00:34.142Z,83.02
2022-12-04T06:03:07.391Z,81.79
2022-12-04T06:05:39.483Z,82.92
2022-12-04T06:08:11.792Z,82.82
2022-12-04T06:10:46.444Z,82.63
2022-12-04T06:13:18.922Z,81.59
2022-12-04T06:15:50.792Z,81.49
2022-12-04T06:18:23.133Z,80.72
2022-12-04T06:20:55.232Z,81.98
2022-12-04T06:23:27.843Z,83.02
2022-12-04T06:26:07.307Z,83.19
2022-12-04T06:28:41.052Z,83.25
2022-12-04T06:31:15.925Z,83.55
2022-12-04T06:33:48.923Z,84.13
2022-12-04T06:36:24.157Z,83.95
2022-12-04T06:39:00.254Z,83.33
2022-12-04T06:41:35.332Z,82.70
2022-12-04T06:44:09.284Z,82.82
2022-12-04T06:46:46.529Z,82.44
2022-12-04T06:49:23.198Z,80.66
2022-12-04T06:51:58.558Z,81.52
2022-12-04T06:54:31.106Z,82.48
2022-12-04T06:57:05.663Z,82.01
2022-12-04T06:59:38.012Z,82.87
2022-12-04T07:02:10.178Z,81.97
2022-12-04T07:04:43.053Z,82.36
2022-12-04T07:07:15.402Z,82.77
2022-12-04T07:09:48.035Z,82.59
2022-12-04T07:12:22.853Z,83.15
2022-12-04T07:14:55.462Z,84.25
2022-12-04T07:17:27.403Z,83.30
2022-12-04T07:20:00.023Z,83.03
2022-12-04T07:22:32.103Z,82.64
2022-12-04T07:25:04.424Z,83.09
2022-12-04T07:27:39.203Z,84.02
2022-12-04T07:30:15.878Z,82.45
2022-12-04T07:32:48.166Z,81.76
2022-12-04T07:35:20.315Z,80.58
2022-12-04T07:37:52.458Z,82.01
2022-12-04T07:40:25.940Z,82.01
2022-12-04T07:43:01.488Z,82.55
2022-12-04T07:45:33.685Z,82.33
2022-12-04T07:48:05.504Z,81.30
2022-12-04T07:50:37.431Z,81.14
2022-12-04T07:53:09.090Z,81.17
2022-12-04T07:55:41.416Z,80.98
2022-12-04T07:58:15.487Z,79.76
2022-12-04T08:00:47.786Z,79.35
2022-12-04T08:03:22.397Z,80.29
2022-12-04T08:05:54.626Z,80.24
2022-12-04T08:08:32.480Z,80.34
2022-12-04T08:11:08.265Z,81.43
2022-12-04T08:13:43.275Z,81.17
2022-12-04T08:16:16.458Z,80.33
2022-12-04T08:18:48.864Z,80.01
2022-12-04T08:21:23.894Z,79.63
2022-12-04T08:23:58.234Z,80.95
2022-12-04T08:26:33.992Z,79.91
2022-12-04T08:29:09.674Z,80.71
2022-12-04T08:31:42.346Z,79.90
2022-12-04T08:34:14.475Z,78.92
2022-12-04T08:36:47.074Z,80.81
2022-12-04T08:39:38.476Z,81.23
2022-12-04T08:42:11.573Z,81.39
2022-12-04T08:44:46.264Z,81.18
2022-12-04T08:47:18.577Z,82.36
2022-12-04T08:49:56.470Z,82.15
2022-12-04T08:52:55.711Z,82.43
2022-12-04T08:55:27.894Z,79.76
2022-12-04T08:58:01.481Z,80.97
2022-12-04T09:00:35.547Z,82.17
2022-12-04T09:03:09.323Z,81.01
2022-12-04T09:05:42.369Z,80.82
2022-12-04T09:08:17.052Z,82.17
2022-12-04T09:10:49.128Z,82.67
2022-12-04T09:13:22.942Z,80.77
2022-12-04T09:15:59.753Z,81.77
2022-12-04T09:18:32.114Z,81.48
2022-12-04T09:21:06.074Z,81.22
2022-12-04T09:23:42.389Z,81.38
2022-12-04T09:26:25.697Z,81.59
2022-12-04T09:29:21.279Z,79.48
2022-12-04T09:32:01.084Z,79.64
2022-12-04T09:34:36.730Z,79.79
2022-12-04T09:37:08.362Z,80.11
2022-12-04T09:39:41.453Z,80.88
2022-12-04T09:42:38.295Z,81.36
2022-12-04T09:45:19.460Z,82.82
2022-12-04T09:47:56.689Z,83.64
2022-12-04T09:50:35.551Z,82.65
2022-12-04T09:53:46.777Z,82.07
2022-12-04T09:56:32.666Z,80.60
2022-12-04T09:59:12.678Z,80.38
2022-12-04T10:01:54.274Z,79.41
2022-12-04T10:04:33.284Z,79.43
2022-12-04T10:07:12.258Z,79.01
2022-12-04T10:10:01.529Z,79.85
2022-12-04T10:12:57.665Z,79.71
2022-12-04T10:15:36.203Z,79.46
2022-12-04T10:18:21.388Z,79.49
2022-12-04T10:21:20.688Z,78.78
2022-12-04T10:24:05.487Z,78.17
2022-12-04T10:26:42.711Z,79.34
2022-12-04T10:29:23.676Z,78.91
2022-12-04T10:31:59.068Z,78.56
2022-12-04T10:34:35.009Z,80.02
2022-12-04T10:37:17.036Z,79.16
2022-12-04T10:39:56.433Z,79.00
2022-12-04T10:42:39.351Z,78.91
2022-12-04T10:45:15.630Z,81.10
2022-12-04T10:47:52.189Z,80.87
2022-12-04T10:50:27.249Z,79.33
2022-12-04T10:53:02.307Z,78.55
2022-12-04T10:55:38.547Z,80.68
2022-12-04T10:58:20.888Z,80.79
2022-12-04T11:01:05.929Z,80.67
2022-12-04T11:03:38.580Z,79.71
2022-12-04T11:06:13.570Z,78.47
2022-12-04T11:08:56.448Z,79.20
2022-12-04T11:11:32.706Z,79.56
2022-12-04T11:14:06.815Z,79.42
2022-12-04T11:16:45.064Z,79.39
2022-12-04T11:19:29.406Z,80.91
2022-12-04T11:22:07.889Z,80.46
2022-12-04T11:24:44.671Z,79.58
2022-12-04T11:27:25.211Z,78.92
2022-12-04T11:29:58.314Z,80.00
2022-12-04T11:32:36.091Z,78.18
2022-12-04T11:35:17.769Z,78.12
2022-12-04T11:37:58.616Z,79.07
2022-12-04T11:40:34.027Z,78.38
2022-12-04T11:43:09.916Z,78.12
2022-12-04T11:45:42.399Z,79.37
2022-12-04T11:48:29.388Z,79.60
2022-12-04T11:51:10.848Z,81.26
2022-12-04T11:53:55.449Z,79.90
2022-12-04T11:56:35.247Z,78.44
2022-12-04T11:59:38.829Z,78.80
2022-12-04T12:02:33.794Z,80.23
2022-12-04T12:05:20.409Z,79.15
2022-12-04T12:08:02.374Z,78.91
2022-12-04T12:10:44.964Z,78.58
2022-12-04T12:13:30.888Z,77.84
2022-12-04T12:16:11.610Z,80.09
2022-12-04T12:19:08.958Z,80.42
2022-12-04T12:21:53.100Z,79.62
2022-12-04T12:24:30.520Z,80.75
2022-12-04T12:27:31.939Z,80.17
2022-12-04T12:30:12.972Z,80.39
2022-12-04T12:33:11.863Z,80.13
2022-12-04T12:35:51.544Z,81.62
2022-12-04T12:38:29.567Z,80.98
2022-12-04T12:41:09.632Z,83.37
2022-12-04T12:43:44.686Z,81.77
2022-12-04T12:46:40.965Z,80.83
2022-12-04T12:49:18.605Z,82.17
2022-12-04T12:51:56.244Z,81.44
2022-12-04T12:54:41.146Z,80.73
2022-12-04T12:57:19.185Z,80.29
2022-12-04T12:59:59.965Z,81.61
2022-12-04T13:02:42.384Z,80.83
2022-12-04T13:05:20.967Z,80.14
2022-12-04T13:08:01.577Z,80.18
2022-12-04T13:10:38.712Z,79.71
2022-12-04T13:13:37.164Z,80.06
2022-12-04T13:16:14.043Z,79.33
2022-12-04T13:18:54.604Z,81.05
2022-12-04T13:21:36.530Z,80.64
2022-12-04T13:24:45.284Z,81.35
2022-12-04T13:27:26.653Z,80.74
2022-12-04T13:30:11.466Z,80.84
2022-12-04T13:33:10.885Z,81.29
2022-12-04T13:36:15.471Z,81.14
2022-12-04T13:39:07.856Z,80.99
2022-12-04T13:41:42.656Z,79.95
2022-12-04T13:44:22.437Z,81.05
2022-12-04T13:47:00.802Z,82.01
2022-12-04T13:49:34.970Z,80.36
2022-12-04T13:52:26.520Z,81.11
2022-12-04T13:55:03.615Z,81.14
2022-12-04T13:57:36.016Z,83.53
2022-12-04T14:00:27.679Z,82.54
2022-12-04T14:03:02.476Z,83.53
2022-12-04T14:05:43.317Z,82.80
2022-12-04T14:08:29.057Z,83.11
2022-12-04T14:11:06.158Z,83.64
2022-12-04T14:13:47.896Z,82.47
2022-12-04T14:16:25.835Z,80.25
2022-12-04T14:19:00.985Z,81.93
2022-12-04T14:21:43.396Z,83.19
2022-12-04T14:24:33.177Z,82.71
2022-12-04T14:27:12.013Z,83.95
2022-12-04T14:29:52.838Z,82.35
2022-12-04T14:32:29.516Z,83.77
2022-12-04T14:35:02.078Z,84.81
2022-12-04T14:37:39.717Z,82.96
2022-12-04T14:40:25.659Z,81.77
2022-12-04T14:42:58.757Z,83.40
2022-12-04T14:45:40.145Z,84.08
2022-12-04T14:48:27.815Z,84.84
2022-12-04T14:51:09.796Z,84.48
2022-12-04T14:53:50.696Z,84.84
2022-12-04T14:56:45.095Z,84.25
2022-12-04T14:59:20.997Z,84.24
2022-12-04T15:01:59.017Z,85.24
2022-12-04T15:04:34.866Z,85.13
2022-12-04T15:07:08.024Z,83.82
2022-12-04T15:09:52.643Z,83.97
2022-12-04T15:12:38.042Z,82.93
2022-12-04T15:15:22.764Z,83.41
2022-12-04T15:18:06.142Z,83.79
2022-12-04T15:20:45.043Z,84.12
2022-12-04T15:23:19.803Z,83.22
2022-12-04T15:25:55.423Z,85.11
2022-12-04T15:28:34.882Z,85.19
2022-12-04T15:31:13.758Z,84.80
2022-12-04T15:33:48.144Z,85.12
2022-12-04T15:36:28.106Z,85.56
2022-12-04T15:39:03.014Z,83.85
2022-12-04T15:41:39.013Z,85.01
2022-12-04T15:44:31.435Z,86.54
2022-12-04T15:47:06.344Z,87.39
2022-12-04T15:49:38.116Z,87.02
2022-12-04T15:52:18.061Z,87.63
2022-12-04T15:54:58.003Z,86.15
2022-12-04T15:57:33.554Z,87.17
2022-12-04T16:00:11.675Z,84.97
2022-12-04T16:02:46.598Z,85.17
2022-12-04T16:05:33.279Z,87.29
2022-12-04T16:08:24.456Z,87.33
2022-12-04T16:11:02.254Z,86.74
2022-12-04T16:13:36.652Z,85.94
2022-12-04T16:16:15.924Z,88.30
2022-12-04T16:18:49.234Z,87.46
2022-12-04T16:21:24.192Z,88.11
2022-12-04T16:23:56.560Z,89.81
2022-12-04T16:26:38.623Z,89.90
2022-12-04T16:29:10.835Z,89.80
2022-12-04T16:31:45.767Z,88.82
2022-12-04T16:34:18.709Z,87.97
2022-12-04T16:36:50.629Z,88.24
2022-12-04T16:39:23.016Z,88.46
2022-12-04T16:41:55.808Z,87.80
2022-12-04T16:44:28.247Z,90.42
2022-12-04T16:47:02.950Z,89.74
2022-12-04T16:49:35.349Z,88.02
2022-12-04T16:52:08.025Z,88.49
2022-12-04T16:54:40.436Z,87.90
2022-12-04T16:57:13.355Z,88.28
2022-12-04T16:59:45.675Z,88.09
2022-12-04T17:02:26.923Z,87.51
2022-12-04T17:10:24.220Z,87.54
2022-12-04T17:12:58.360Z,89.02
2022-12-04T17:15:31.309Z,87.96
2022-12-04T17:18:11.221Z,89.03
2022-12-04T17:20:49.906Z,89.25
2022-12-04T17:23:21.213Z,90.76
2022-12-04T17:25:53.914Z,91.16
2022-12-04T17:28:25.438Z,89.73
2022-12-04T17:30:58.190Z,88.53
2022-12-04T17:33:32.444Z,89.11
2022-12-04T17:36:05.164Z,89.54
2022-12-04T17:38:38.165Z,88.21
2022-12-04T17:41:17.094Z,89.89
2022-12-04T17:43:48.878Z,89.48
2022-12-04T17:46:26.687Z,90.11
2022-12-04T17:49:06.977Z,91.17
2022-12-04T17:51:41.970Z,88.94
2022-12-04T17:54:15.569Z,90.57
2022-12-04T17:56:50.396Z,89.31
2022-12-04T17:59:26.028Z,91.71
2022-12-04T18:02:00.080Z,91.08
2022-12-04T18:04:39.951Z,90.51
2022-12-04T18:07:13.217Z,90.30
2022-12-04T18:09:44.648Z,91.04
2022-12-04T18:12:17.720Z,91.80
2022-12-04T18:14:53.187Z,91.24
2022-12-04T18:17:34.150Z,93.70
2022-12-04T18:20:12.055Z,93.15
2022-12-04T18:22:44.255Z,92.37
2022-12-04T18:25:20.175Z,93.22
2022-12-04T18:27:54.025Z,92.40
2022-12-04T18:30:27.102Z,93.86
2022-12-04T18:33:03.291Z,93.31
2022-12-04T18:35:37.398Z,92.10
2022-12-04T18:38:16.611Z,90.66
2022-12-04T18:40:50.453Z,91.10
2022-12-04T18:43:23.330Z,91.63
2022-12-04T18:46:07.691Z,90.35
2022-12-04T18:48:41.805Z,91.68
2022-12-04T18:51:37.429Z,90.06
2022-12-04T18:54:24.266Z,92.18
2022-12-04T18:57:11.896Z,90.62
2022-12-04T18:59:57.094Z,90.28
2022-12-04T19:02:31.135Z,91.24
2022-12-04T19:05:03.487Z,92.31
2022-12-04T19:07:45.147Z,93.33
2022-12-04T19:10:18.620Z,93.17
2022-12-04T19:12:52.839Z,92.02
2022-12-04T19:15:27.480Z,92.20
2022-12-04T19:17:59.240Z,91.02
2022-12-04T19:20:31.359Z,90.57
2022-12-04T19:23:05.827Z,91.97
2022-12-04T19:25:38.261Z,92.33
2022-12-04T19:28:10.341Z,91.70
2022-12-04T19:30:43.061Z,91.83
2022-12-04T19:33:14.900Z,90.86
2022-12-04T19:35:47.922Z,90.71
2022-12-04T19:38:22.598Z,90.27
2022-12-04T19:41:05.499Z,89.25
2022-12-04T19:43:37.920Z,89.13
2022-12-04T19:46:11.402Z,90.86
2022-12-04T19:48:46.219Z,90.47
2022-12-04T19:51:21.239Z,89.32
2022-12-04T19:54:01.086Z,88.26
2022-12-04T19:56:36.158Z,89.08
2022-12-04T19:59:10.481Z,89.09
2022-12-04T20:01:45.009Z,88.09
2022-12-04T20:04:17.879Z,88.62
2022-12-04T20:06:50.440Z,90.34
2022-12-04T20:09:25.922Z,89.94
2022-12-04T20:11:58.639Z,90.29
2022-12-04T20:14:30.499Z,89.79
2022-12-04T20:17:04.330Z,89.27
2022-12-04T20:19:36.180Z,89.06
2022-12-04T20:22:08.520Z,88.18
2022-12-04T20:25:05.419Z,89.99
2022-12-04T20:27:37.801Z,89.84
2022-12-04T20:30:11.439Z,90.37
2022-12-04T20:32:45.398Z,90.28
2022-12-04T20:35:17.759Z,90.86
2022-12-04T20:37:50.299Z,90.98
2022-12-04T20:40:25.269Z,90.91
2022-12-04T20:42:58.800Z,90.48
2022-12-04T20:45:30.689Z,91.10
2022-12-04T20:48:05.278Z,90.24
2022-12-04T20:50:37.741Z,91.13
2022-12-04T20:53:09.514Z,89.86
2022-12-04T20:55:46.029Z,89.36
2022-12-04T20:58:21.468Z,90.07
2022-12-04T21:00:57.782Z,90.80
2022-12-04T21:03:31.743Z,91.10
2022-12-04T21:06:07.750Z,90.29
2022-12-04T21:08:53.319Z,88.29
2022-12-04T21:11:33.570Z,90.04
2022-12-04T21:14:21.608Z,90.51
2022-12-04T21:16:53.407Z,90.18
2022-12-04T21:19:28.633Z,90.68
2022-12-04T21:21:59.720Z,91.45
2022-12-04T21:24:38.861Z,91.41
2022-12-04T21:27:19.183Z,90.75
2022-12-04T21:29:59.033Z,89.04
2022-12-04T21:32:30.836Z,90.57
2022-12-04T21:35:05.898Z,91.04
2022-12-04T21:37:39.089Z,91.96
2022-12-04T21:40:15.808Z,91.66
2022-12-04T21:42:54.537Z,90.82
2022-12-04T21:45:27.587Z,91.84
2022-12-04T21:47:58.712Z,92.40
2022-12-04T21:50:30.213Z,92.46
2022-12-04T21:53:07.682Z,91.21
2022-12-04T21:55:40.147Z,90.89
2022-12-04T21:58:18.232Z,91.02
2022-12-04T22:00:50.998Z,92.99
2022-12-04T22:03:22.556Z,92.00
2022-12-04T22:06:05.930Z,90.81
2022-12-04T22:08:43.544Z,91.38
2022-12-04T22:11:19.971Z,91.08
2022-12-04T22:13:53.742Z,92.33
2022-12-04T22:16:30.508Z,92.82
2022-12-04T22:19:10.814Z,92.12
2022-12-04T22:21:45.865Z,91.10
2022-12-04T22:24:17.161Z,91.29
2022-12-04T22:26:52.290Z,91.00
2022-12-04T22:32:18.116Z,90.82
2022-12-04T22:34:51.159Z,90.07
2022-12-04T22:37:23.085Z,91.99
2022-12-04T22:39:55.512Z,92.95
2022-12-04T22:42:30.105Z,91.85
2022-12-04T22:45:04.410Z,92.26
2022-12-04T22:47:36.056Z,92.54
2022-12-04T22:50:11.586Z,93.61
2022-12-04T22:52:46.337Z,92.60
2022-12-04T22:55:18.172Z,91.97
2022-12-04T22:57:50.387Z,92.48
2022-12-04T23:00:25.399Z,92.58
2022-12-04T23:02:57.599Z,94.69
2022-12-04T23:05:33.211Z,93.26
2022-12-04T23:08:08.463Z,91.72
2022-12-04T23:10:41.275Z,92.79
2022-12-04T23:13:13.405Z,93.19
2022-12-04T23:15:49.169Z,92.14
2022-12-04T23:18:21.682Z,90.11
2022-12-04T23:20:53.421Z,92.18
2022-12-04T23:23:25.645Z,91.97
2022-12-04T23:25:57.218Z,91.98
2022-12-04T23:28:31.942Z,91.43
2022-12-04T23:31:09.055Z,92.31
2022-12-04T23:33:41.766Z,92.58
2022-12-04T23:36:21.912Z,92.80
2022-12-04T23:38:53.965Z,92.12
2022-12-04T23:41:27.546Z,92.49
2022-12-04T23:44:00.815Z,93.32
2022-12-04T23:46:36.558Z,93.45
2022-12-04T23:49:09.096Z,92.77
2022-12-04T23:51:41.324Z,93.35
2022-12-04T23:54:14.015Z,93.57
2022-12-04T23:56:47.236Z,93.05
2022-12-04T23:59:21.645Z,94.22
